createdAt,value
2023-01-27T00:02:04.487Z,8.57
2023-01-27T00:07:06.122Z,10.18
2023-01-27T00:12:39.439Z,10.07
2023-01-27T00:17:41.584Z,6.60
2023-01-27T00:23:01.716Z,9.15
2023-01-27T00:28:05.856Z,9.18
2023-01-27T00:33:30.062Z,7.43
2023-01-27T00:38:33.761Z,7.22
2023-01-27T00:43:35.407Z,10.15
2023-01-27T00:48:37.272Z,8.20
2023-01-27T00:53:39.302Z,8.18
2023-01-27T00:58:41.111Z,7.20
2023-01-27T01:03:43.332Z,9.20
2023-01-27T01:08:45.216Z,9.75
2023-01-27T01:13:47.273Z,11.50
2023-01-27T01:18:49.200Z,11.60
2023-01-27T01:23:51.041Z,8.77
2023-01-27T01:28:52.761Z,8.80
2023-01-27T01:33:54.404Z,9.65
2023-01-27T01:38:59.215Z,7.95
2023-01-27T01:44:22.519Z,9.70
2023-01-27T01:49:28.419Z,8.48
2023-01-27T01:54:38.795Z,7.57
2023-01-27T01:59:59.923Z,7.75
2023-01-27T02:05:14.916Z,6.82
2023-01-27T02:10:16.769Z,8.73
2023-01-27T02:15:21.607Z,7.00
2023-01-27T02:20:32.324Z,6.72
2023-01-27T02:25:43.801Z,9.38
2023-01-27T02:30:45.727Z,8.20
2023-01-27T02:36:17.790Z,9.43
2023-01-27T02:41:40.377Z,8.38
2023-01-27T02:46:42.404Z,9.02
2023-01-27T02:51:44.301Z,6.57
2023-01-27T02:56:46.146Z,10.15
2023-01-27T03:01:51.644Z,8.77
2023-01-27T03:06:54.523Z,10.27
2023-01-27T03:12:14.849Z,8.40
2023-01-27T03:17:35.178Z,8.90
2023-01-27T03:22:37.737Z,9.68
2023-01-27T03:27:39.507Z,9.18
2023-01-27T03:33:10.560Z,8.90
2023-01-27T03:38:53.736Z,8.52
2023-01-27T03:44:14.209Z,8.88
2023-01-27T03:49:15.987Z,10.48
2023-01-27T03:54:17.603Z,10.23
2023-01-27T03:59:19.283Z,10.43
2023-01-27T04:04:39.358Z,9.70
2023-01-27T04:09:41.010Z,11.88
2023-01-27T04:14:42.658Z,9.27
2023-01-27T04:19:44.791Z,7.78
2023-01-27T04:24:46.502Z,9.35
2023-01-27T04:29:48.411Z,9.20
2023-01-27T04:34:50.134Z,8.02
2023-01-27T04:39:52.048Z,8.13
2023-01-27T04:44:53.687Z,8.90
2023-01-27T04:49:55.601Z,7.55
2023-01-27T04:54:57.358Z,8.88
2023-01-27T04:59:59.058Z,9.15
2023-01-27T05:05:04.662Z,9.02
2023-01-27T05:10:07.472Z,7.93
2023-01-27T05:15:09.429Z,7.35
2023-01-27T05:20:11.729Z,8.02
2023-01-27T05:25:13.635Z,7.15
2023-01-27T05:30:15.728Z,10.02
2023-01-27T05:35:17.509Z,8.65
2023-01-27T05:40:19.224Z,7.18
2023-01-27T05:45:21.007Z,8.95
2023-01-27T05:50:22.770Z,8.07
2023-01-27T05:55:24.398Z,7.70
2023-01-27T06:00:26.163Z,9.27
2023-01-27T06:05:27.784Z,6.47
2023-01-27T06:10:29.806Z,10.75
2023-01-27T06:15:31.987Z,10.32
2023-01-27T06:20:33.741Z,7.88
2023-01-27T06:25:37.530Z,6.68
2023-01-27T06:30:40.075Z,6.47
2023-01-27T06:35:41.836Z,7.15
2023-01-27T06:40:44.240Z,6.38
2023-01-27T06:45:46.081Z,8.38
2023-01-27T06:50:47.700Z,8.95
2023-01-27T06:55:49.706Z,9.73
2023-01-27T07:00:52.161Z,8.55
2023-01-27T07:05:53.829Z,8.75
2023-01-27T07:10:55.507Z,5.60
2023-01-27T07:15:57.702Z,7.25
2023-01-27T07:20:59.391Z,8.57
2023-01-27T07:26:04.262Z,6.72
2023-01-27T07:31:09.802Z,7.20
2023-01-27T07:36:11.566Z,7.95
2023-01-27T07:41:14.648Z,7.40
2023-01-27T07:46:16.286Z,8.60
2023-01-27T07:51:17.978Z,7.50
2023-01-27T07:56:19.608Z,6.38
2023-01-27T08:01:21.286Z,9.48
2023-01-27T08:06:23.041Z,8.23
2023-01-27T08:11:24.650Z,11.82
2023-01-27T08:16:26.278Z,8.23
2023-01-27T08:21:32.821Z,9.40
2023-01-27T08:26:34.485Z,9.63
2023-01-27T08:31:36.217Z,7.32
2023-01-27T08:36:41.852Z,8.43
2023-01-27T08:41:43.457Z,8.98
2023-01-27T08:46:45.306Z,7.22
2023-01-27T08:51:47.127Z,7.78
2023-01-27T08:56:48.798Z,8.45
2023-01-27T09:01:50.432Z,7.18
2023-01-27T09:06:54.180Z,7.00
2023-01-27T09:11:55.816Z,7.75
2023-01-27T09:16:57.459Z,6.28
2023-01-27T09:21:59.625Z,7.20
2023-01-27T09:27:01.345Z,7.25
2023-01-27T09:32:03.758Z,8.88
2023-01-27T09:37:08.833Z,8.13
2023-01-27T09:42:27.188Z,10.15
2023-01-27T09:47:42.166Z,8.18
2023-01-27T09:52:50.879Z,9.52
2023-01-27T09:58:02.208Z,8.18
2023-01-27T10:03:26.354Z,8.30
2023-01-27T10:08:52.777Z,9.82
2023-01-27T10:14:18.890Z,6.63
2023-01-27T10:19:20.439Z,7.82
2023-01-27T10:24:37.202Z,9.52
2023-01-27T10:29:47.053Z,7.93
2023-01-27T10:35:23.918Z,9.68
2023-01-27T10:40:47.360Z,9.40
2023-01-27T10:46:23.889Z,9.30
2023-01-27T10:51:35.645Z,9.63
2023-01-27T10:56:47.527Z,8.75
2023-01-27T11:01:56.362Z,8.23
2023-01-27T11:06:59.089Z,10.27
2023-01-27T11:12:02.854Z,10.30
2023-01-27T11:17:37.630Z,9.65
2023-01-27T11:22:55.667Z,8.88
2023-01-27T11:28:11.211Z,12.40
2023-01-27T11:33:44.227Z,10.68
2023-01-27T11:38:46.494Z,10.10
2023-01-27T11:43:48.285Z,11.05
2023-01-27T11:48:52.453Z,9.23
2023-01-27T11:54:20.737Z,10.82
2023-01-27T11:59:52.769Z,10.10
2023-01-27T12:05:10.079Z,10.77
2023-01-27T12:10:24.258Z,9.68
2023-01-27T12:15:31.135Z,10.80
2023-01-27T12:20:32.753Z,10.95
2023-01-27T12:25:44.739Z,8.57
2023-01-27T12:30:46.972Z,12.13
2023-01-27T12:35:49.377Z,11.18
2023-01-27T12:41:01.508Z,9.68
2023-01-27T12:46:06.188Z,12.73
2023-01-27T12:51:15.639Z,11.23
2023-01-27T12:56:22.474Z,11.18
2023-01-27T13:01:27.035Z,10.02
2023-01-27T13:06:42.533Z,12.55
2023-01-27T13:11:44.800Z,9.57
2023-01-27T13:16:54.244Z,9.35
2023-01-27T13:21:56.262Z,8.77
2023-01-27T13:26:58.555Z,9.77
2023-01-27T13:32:23.681Z,9.43
2023-01-27T13:37:38.063Z,9.10
2023-01-27T13:42:55.475Z,9.88
2023-01-27T13:48:00.335Z,8.35
2023-01-27T13:53:02.613Z,9.25
2023-01-27T13:58:13.182Z,9.02
2023-01-27T14:03:26.082Z,8.55
2023-01-27T14:08:54.096Z,6.68
2023-01-27T14:14:04.523Z,8.05
2023-01-27T14:19:12.028Z,8.48
2023-01-27T14:24:35.738Z,7.38
2023-01-27T14:29:40.504Z,6.32
2023-01-27T14:35:07.788Z,7.30
2023-01-27T14:40:15.876Z,6.35
2023-01-27T14:45:30.711Z,7.18
2023-01-27T14:50:49.521Z,8.32
2023-01-27T14:56:18.517Z,7.60
2023-01-27T15:01:31.969Z,6.40
2023-01-27T15:06:47.752Z,6.40
2023-01-27T15:12:12.399Z,7.47
2023-01-27T15:17:28.750Z,8.98
2023-01-27T15:22:54.904Z,8.57
2023-01-27T15:32:58.382Z,7.80
2023-01-27T15:38:00.365Z,7.80
2023-01-27T15:43:05.165Z,6.32
2023-01-27T15:48:11.858Z,5.65
2023-01-27T15:53:16.776Z,8.32
2023-01-27T15:58:23.188Z,7.32
2023-01-27T16:03:48.117Z,6.70
2023-01-27T16:09:05.647Z,8.20
2023-01-27T16:14:16.976Z,7.95
2023-01-27T16:19:19.656Z,6.60
2023-01-27T16:24:41.838Z,7.43
2023-01-27T16:29:49.011Z,9.52
2023-01-27T16:34:53.503Z,8.27
2023-01-27T16:39:56.536Z,7.50
2023-01-27T16:45:01.542Z,8.48
2023-01-27T16:50:03.373Z,7.50
2023-01-27T16:55:05.437Z,6.88
2023-01-27T17:00:20.156Z,5.70
2023-01-27T17:05:22.333Z,7.47
2023-01-27T17:10:34.209Z,5.80
2023-01-27T17:15:38.117Z,7.80
2023-01-27T17:20:43.059Z,8.43
2023-01-27T17:25:46.556Z,8.25
2023-01-27T17:30:48.364Z,8.43
2023-01-27T17:35:52.664Z,8.05
2023-01-27T17:40:55.355Z,9.02
2023-01-27T17:46:06.245Z,7.70
2023-01-27T17:51:12.969Z,8.15
2023-01-27T17:56:19.799Z,8.02
2023-01-27T18:01:21.737Z,7.95
2023-01-27T18:06:29.629Z,8.43
2023-01-27T18:11:32.759Z,11.32
2023-01-27T18:16:35.319Z,9.43
2023-01-27T18:21:37.254Z,10.10
2023-01-27T18:26:38.809Z,11.13
2023-01-27T18:31:57.064Z,11.38
2023-01-27T18:37:06.600Z,10.07
2023-01-27T18:42:15.089Z,11.63
2023-01-27T18:47:19.638Z,10.63
2023-01-27T18:52:21.778Z,11.90
2023-01-27T18:57:23.482Z,11.00
2023-01-27T19:02:25.444Z,12.35
2023-01-27T19:07:27.091Z,11.85
2023-01-27T19:12:28.715Z,12.18
2023-01-27T19:17:30.393Z,10.80
2023-01-27T19:22:32.033Z,10.05
2023-01-27T19:27:33.874Z,9.40
2023-01-27T19:32:35.563Z,11.13
2023-01-27T19:37:37.254Z,11.52
2023-01-27T19:42:38.965Z,12.18
2023-01-27T19:47:43.691Z,13.40
2023-01-27T19:52:45.705Z,11.27
2023-01-27T19:57:48.541Z,12.55
2023-01-27T20:02:50.753Z,13.98
2023-01-27T20:07:57.241Z,11.80
2023-01-27T20:13:00.607Z,14.07
2023-01-27T20:18:02.278Z,14.00
2023-01-27T20:23:03.997Z,11.70
2023-01-27T20:28:05.696Z,14.15
2023-01-27T20:33:07.352Z,11.70
2023-01-27T20:38:09.196Z,15.68
2023-01-27T20:43:12.212Z,15.77
2023-01-27T20:48:13.884Z,12.88
2023-01-27T20:53:15.551Z,15.57
2023-01-27T20:58:17.210Z,15.52
2023-01-27T21:03:18.916Z,14.18
2023-01-27T21:08:21.947Z,12.55
2023-01-27T21:13:23.686Z,14.80
2023-01-27T21:18:25.459Z,13.35
2023-01-27T21:23:31.740Z,13.90
2023-01-27T21:28:34.021Z,14.20
2023-01-27T21:33:37.510Z,15.95
2023-01-27T21:38:39.443Z,15.48
2023-01-27T21:43:59.844Z,15.80
2023-01-27T21:49:01.480Z,14.13
2023-01-27T21:54:03.429Z,14.25
2023-01-27T21:59:05.134Z,13.82
2023-01-27T22:04:07.108Z,13.00
2023-01-27T22:09:08.794Z,16.60
2023-01-27T22:14:10.461Z,13.50
2023-01-27T22:19:12.131Z,12.35
2023-01-27T22:24:13.914Z,13.98
2023-01-27T22:29:16.006Z,13.98
2023-01-27T22:34:17.698Z,13.98
2023-01-27T22:39:19.848Z,12.23
2023-01-27T22:44:21.721Z,14.55
2023-01-27T22:49:23.447Z,13.57
2023-01-27T22:54:25.309Z,11.88
2023-01-27T22:59:27.021Z,12.68
2023-01-27T23:04:28.760Z,11.68
2023-01-27T23:09:31.300Z,12.90
2023-01-27T23:14:32.943Z,12.32
2023-01-27T23:19:34.570Z,11.25
2023-01-27T23:24:36.295Z,13.15
2023-01-27T23:29:37.944Z,9.90
2023-01-27T23:34:39.737Z,12.20
2023-01-27T23:39:46.003Z,11.88
2023-01-27T23:44:47.844Z,9.20
2023-01-27T23:49:49.452Z,9.02
2023-01-27T23:54:51.152Z,9.65
2023-01-27T23:59:52.785Z,8.52
